createdAt,value
2018-11-03T00:00:24.841Z,3.83
2018-11-03T00:02:53.511Z,4.20
2018-11-03T00:05:21.933Z,3.53
2018-11-03T00:07:50.512Z,3.80
2018-11-03T00:10:19.142Z,4.13
2018-11-03T00:12:47.582Z,4.00
2018-11-03T00:15:16.217Z,4.00
2018-11-03T00:17:44.621Z,4.00
2018-11-03T00:20:13.024Z,4.10
2018-11-03T00:22:41.864Z,4.17
2018-11-03T00:25:10.638Z,3.70
2018-11-03T00:27:39.036Z,3.93
2018-11-03T00:30:09.922Z,3.80
2018-11-03T00:32:38.665Z,4.00
2018-11-03T00:35:07.245Z,4.13
2018-11-03T00:37:35.917Z,4.07
2018-11-03T00:40:05.028Z,4.07
2018-11-03T00:42:33.437Z,4.37
2018-11-03T00:45:02.144Z,3.97
2018-11-03T00:47:30.820Z,4.33
2018-11-03T00:49:59.288Z,4.10
2018-11-03T00:52:28.026Z,4.40
2018-11-03T00:54:56.745Z,5.57
2018-11-03T00:57:25.141Z,5.70
2018-11-03T00:59:53.870Z,5.03
2018-11-03T01:02:22.420Z,4.77
2018-11-03T01:04:50.796Z,4.20
2018-11-03T01:07:19.209Z,3.87
2018-11-03T01:09:48.059Z,4.30
2018-11-03T01:12:16.619Z,3.53
2018-11-03T01:14:45.012Z,3.93
2018-11-03T01:17:13.602Z,3.73
2018-11-03T01:19:42.051Z,3.60
2018-11-03T01:22:10.469Z,3.60
2018-11-03T01:24:39.237Z,3.47
2018-11-03T01:27:07.713Z,3.43
2018-11-03T01:29:36.120Z,3.63
2018-11-03T01:32:05.036Z,3.20
2018-11-03T01:34:33.437Z,3.97
2018-11-03T01:37:01.792Z,3.77
2018-11-03T01:39:30.596Z,3.80
2018-11-03T01:41:59.007Z,3.70
2018-11-03T01:44:27.444Z,3.70
2018-11-03T01:46:56.218Z,3.80
2018-11-03T01:49:24.694Z,3.70
2018-11-03T01:51:53.053Z,4.20
2018-11-03T01:54:21.656Z,3.80
2018-11-03T01:56:50.043Z,3.43
2018-11-03T01:59:18.431Z,3.63
2018-11-03T02:01:47.359Z,3.77
2018-11-03T02:04:15.747Z,4.00
2018-11-03T02:06:44.151Z,3.93
2018-11-03T02:09:12.777Z,3.90
2018-11-03T02:11:41.144Z,4.40
2018-11-03T02:14:09.648Z,3.90
2018-11-03T02:16:38.349Z,3.97
2018-11-03T02:19:06.804Z,4.00
2018-11-03T02:21:35.174Z,4.30
2018-11-03T02:24:04.148Z,4.47
2018-11-03T02:26:32.590Z,4.33
2018-11-03T02:29:01.020Z,4.20
2018-11-03T02:31:29.749Z,4.30
2018-11-03T02:33:58.161Z,4.90
2018-11-03T02:36:26.528Z,4.80
2018-11-03T02:38:55.361Z,4.73
2018-11-03T02:41:23.722Z,4.20
2018-11-03T02:43:52.177Z,4.60
2018-11-03T02:46:21.101Z,4.50
2018-11-03T02:48:49.508Z,5.03
2018-11-03T02:51:17.913Z,4.83
2018-11-03T02:53:46.771Z,4.33
2018-11-03T02:56:15.173Z,4.73
2018-11-03T02:58:43.579Z,4.07
2018-11-03T03:01:12.413Z,4.40
2018-11-03T03:03:40.797Z,4.53
2018-11-03T03:06:09.173Z,4.27
2018-11-03T03:08:37.847Z,5.13
2018-11-03T03:11:06.246Z,4.70
2018-11-03T03:13:34.693Z,4.70
2018-11-03T03:16:03.812Z,4.40
2018-11-03T03:18:32.182Z,4.40
2018-11-03T03:21:00.582Z,5.47
2018-11-03T03:23:29.371Z,4.77
2018-11-03T03:25:57.753Z,4.63
2018-11-03T03:28:26.094Z,5.00
2018-11-03T03:30:54.680Z,5.20
2018-11-03T03:33:23.038Z,5.20
2018-11-03T03:35:51.426Z,4.77
2018-11-03T03:38:20.305Z,5.40
2018-11-03T03:40:48.685Z,5.27
2018-11-03T03:43:17.146Z,4.93
2018-11-03T03:45:46.070Z,4.70
2018-11-03T03:48:14.642Z,5.30
2018-11-03T03:50:43.435Z,5.63
2018-11-03T03:53:11.844Z,5.20
2018-11-03T03:55:40.224Z,5.00
2018-11-03T03:58:08.765Z,5.40
2018-11-03T04:00:37.424Z,5.17
2018-11-03T04:03:05.835Z,5.70
2018-11-03T04:05:34.405Z,5.50
2018-11-03T04:08:02.879Z,5.83
2018-11-03T04:10:31.233Z,6.40
2018-11-03T04:12:59.777Z,7.17
2018-11-03T04:15:28.499Z,7.37
2018-11-03T04:17:57.043Z,8.57
2018-11-03T04:20:25.655Z,8.07
2018-11-03T04:22:54.130Z,8.93
2018-11-03T04:25:22.510Z,7.80
2018-11-03T04:27:51.141Z,7.37
2018-11-03T04:30:19.637Z,8.10
2018-11-03T04:32:48.157Z,7.07
2018-11-03T04:35:16.886Z,6.93
2018-11-03T04:37:45.327Z,6.20
2018-11-03T04:40:13.717Z,6.23
2018-11-03T04:42:42.973Z,5.97
2018-11-03T04:45:12.040Z,5.97
2018-11-03T04:47:40.384Z,6.10
2018-11-03T04:50:10.078Z,5.83
2018-11-03T04:52:38.655Z,6.23
2018-11-03T04:55:07.738Z,6.13
2018-11-03T04:57:36.490Z,5.70
2018-11-03T05:00:05.758Z,5.60
2018-11-03T05:02:34.237Z,5.90
2018-11-03T05:05:02.764Z,5.63
2018-11-03T05:07:31.284Z,6.30
2018-11-03T05:09:59.846Z,5.43
2018-11-03T05:12:28.514Z,5.93
2018-11-03T05:14:57.007Z,5.43
2018-11-03T05:17:25.418Z,5.33
2018-11-03T05:19:53.963Z,5.70
2018-11-03T05:22:22.386Z,6.03
2018-11-03T05:24:50.750Z,5.53
2018-11-03T05:27:19.518Z,6.03
2018-11-03T05:29:47.884Z,5.50
2018-11-03T05:32:16.248Z,5.97
2018-11-03T05:34:44.724Z,5.97
2018-11-03T05:37:13.302Z,5.40
2018-11-03T05:39:41.740Z,6.23
2018-11-03T05:42:10.226Z,5.43
2018-11-03T05:44:38.690Z,5.93
2018-11-03T05:47:07.109Z,5.80
2018-11-03T05:49:35.710Z,5.63
2018-11-03T05:52:04.119Z,5.73
2018-11-03T05:54:32.565Z,5.60
2018-11-03T05:57:01.134Z,5.57
2018-11-03T05:59:29.525Z,5.83
2018-11-03T06:01:58.040Z,5.53
2018-11-03T06:04:26.708Z,5.50
2018-11-03T06:06:55.140Z,5.63
2018-11-03T06:09:23.491Z,5.20
2018-11-03T06:11:52.005Z,5.40
2018-11-03T06:14:20.601Z,5.47
2018-11-03T06:16:48.993Z,5.60
2018-11-03T06:19:17.618Z,5.50
2018-11-03T06:21:46.219Z,5.33
2018-11-03T06:24:14.726Z,5.00
2018-11-03T06:26:43.475Z,5.33
2018-11-03T06:29:12.039Z,5.40
2018-11-03T06:31:40.748Z,5.03
2018-11-03T06:34:09.240Z,4.97
2018-11-03T06:36:37.611Z,4.57
2018-11-03T06:39:06.968Z,4.77
2018-11-03T06:41:35.533Z,4.80
2018-11-03T06:44:04.258Z,5.40
2018-11-03T06:46:32.700Z,5.20
2018-11-03T06:49:06.519Z,5.30
2018-11-03T06:51:34.993Z,5.33
2018-11-03T06:54:03.714Z,4.93
2018-11-03T06:56:33.439Z,4.97
2018-11-03T06:59:01.982Z,5.47
2018-11-03T07:01:30.590Z,4.97
2018-11-03T07:03:59.269Z,5.40
2018-11-03T07:06:27.715Z,5.50
2018-11-03T07:08:56.140Z,5.17
2018-11-03T07:11:25.107Z,5.27
2018-11-03T07:13:53.713Z,5.30
2018-11-03T07:16:22.110Z,5.67
2018-11-03T07:18:50.669Z,6.20
2018-11-03T07:21:19.160Z,5.27
2018-11-03T07:23:47.599Z,5.07
2018-11-03T07:26:16.245Z,5.00
2018-11-03T07:28:44.670Z,5.30
2018-11-03T07:31:13.115Z,5.67
2018-11-03T07:33:41.704Z,5.77
2018-11-03T07:36:10.149Z,5.17
2018-11-03T07:38:38.519Z,5.80
2018-11-03T07:41:07.141Z,6.13
2018-11-03T07:43:35.525Z,6.27
2018-11-03T07:46:03.939Z,5.93
2018-11-03T07:48:32.557Z,6.07
2018-11-03T07:51:03.989Z,6.40
2018-11-03T07:53:32.404Z,6.27
2018-11-03T07:56:00.910Z,5.97
2018-11-03T07:58:29.432Z,6.77
2018-11-03T08:00:57.840Z,6.63
2018-11-03T08:03:26.561Z,6.77
2018-11-03T08:05:55.100Z,6.23
2018-11-03T08:08:23.662Z,6.90
2018-11-03T08:11:05.470Z,7.47
2018-11-03T08:13:35.648Z,6.63
2018-11-03T08:16:07.187Z,6.43
2018-11-03T08:18:35.703Z,7.07
2018-11-03T08:21:04.206Z,6.83
2018-11-03T08:23:33.357Z,6.83
2018-11-03T08:26:01.797Z,6.27
2018-11-03T08:28:30.822Z,6.73
2018-11-03T08:30:59.578Z,6.07
2018-11-03T08:33:28.065Z,5.60
2018-11-03T08:35:56.444Z,6.17
2018-11-03T08:38:24.907Z,5.90
2018-11-03T08:40:53.320Z,5.43
2018-11-03T08:43:21.727Z,6.40
2018-11-03T08:45:50.470Z,6.10
2018-11-03T08:48:19.105Z,6.20
2018-11-03T08:50:47.366Z,5.30
2018-11-03T08:53:15.924Z,6.07
2018-11-03T08:55:52.894Z,5.67
2018-11-03T08:58:29.860Z,5.67
2018-11-03T09:01:05.749Z,5.60
2018-11-03T09:03:34.943Z,6.00
2018-11-03T09:06:03.383Z,5.87
2018-11-03T09:08:31.827Z,5.73
2018-11-03T09:11:06.995Z,5.80
2018-11-03T09:13:41.503Z,5.33
2018-11-03T09:16:16.147Z,6.07
2018-11-03T09:18:49.761Z,4.93
2018-11-03T09:21:23.661Z,5.17
2018-11-03T09:23:52.330Z,6.07
2018-11-03T09:26:20.755Z,4.77
2018-11-03T09:28:49.417Z,5.27
2018-11-03T09:31:17.968Z,4.93
2018-11-03T09:33:46.409Z,5.50
2018-11-03T09:36:15.008Z,5.20
2018-11-03T09:38:43.454Z,4.97
2018-11-03T09:41:11.879Z,5.33
2018-11-03T09:43:40.365Z,6.60
2018-11-03T09:46:08.806Z,5.00
2018-11-03T09:48:37.260Z,4.90
2018-11-03T09:51:05.967Z,4.50
2018-11-03T09:53:34.378Z,4.80
2018-11-03T09:56:02.849Z,5.20
2018-11-03T09:58:31.500Z,5.30
2018-11-03T10:00:59.849Z,5.00
2018-11-03T10:03:28.412Z,5.50
2018-11-03T10:05:56.976Z,6.30
2018-11-03T10:08:25.379Z,6.07
2018-11-03T10:10:53.841Z,6.20
2018-11-03T10:13:22.299Z,6.47
2018-11-03T10:15:50.800Z,6.30
2018-11-03T10:18:19.208Z,6.57
2018-11-03T10:20:47.830Z,7.27
2018-11-03T10:23:16.181Z,6.40
2018-11-03T10:25:44.609Z,5.93
2018-11-03T10:28:13.181Z,5.53
2018-11-03T10:30:41.636Z,6.10
2018-11-03T10:33:10.120Z,5.17
2018-11-03T10:35:41.238Z,5.67
2018-11-03T10:38:09.739Z,5.30
2018-11-03T10:40:38.240Z,4.37
2018-11-03T10:43:07.087Z,4.30
2018-11-03T10:45:35.532Z,3.60
2018-11-03T10:48:03.993Z,3.97
2018-11-03T10:50:32.681Z,3.93
2018-11-03T10:53:01.217Z,3.20
2018-11-03T10:55:29.625Z,3.27
2018-11-03T10:57:58.227Z,3.90
2018-11-03T11:00:32.355Z,3.00
2018-11-03T11:03:06.246Z,3.37
2018-11-03T11:05:39.867Z,3.53
2018-11-03T11:08:13.793Z,3.37
2018-11-03T11:10:47.569Z,3.40
2018-11-03T11:13:18.952Z,3.30
2018-11-03T11:15:47.558Z,3.43
2018-11-03T11:18:15.994Z,3.33
2018-11-03T11:20:45.424Z,3.20
2018-11-03T11:23:13.823Z,3.03
2018-11-03T11:25:43.091Z,3.10
2018-11-03T11:28:11.789Z,2.80
2018-11-03T11:30:41.463Z,2.70
2018-11-03T11:33:11.448Z,2.50
2018-11-03T11:35:40.334Z,2.70
2018-11-03T11:38:09.614Z,3.03
2018-11-03T11:40:38.361Z,2.67
2018-11-03T11:43:07.539Z,3.73
2018-11-03T11:45:36.121Z,3.07
2018-11-03T11:48:04.687Z,3.77
2018-11-03T11:50:33.362Z,3.10
2018-11-03T11:53:01.802Z,3.07
2018-11-03T11:55:30.232Z,3.37
2018-11-03T11:57:59.042Z,3.17
2018-11-03T12:00:28.800Z,2.97
2018-11-03T12:02:57.258Z,3.33
2018-11-03T12:05:25.816Z,2.90
2018-11-03T12:07:54.236Z,2.93
2018-11-03T12:10:22.641Z,2.63
2018-11-03T12:12:51.401Z,3.50
2018-11-03T12:15:19.844Z,2.90
2018-11-03T12:17:48.288Z,2.50
2018-11-03T12:20:17.417Z,3.00
2018-11-03T12:22:45.829Z,2.60
2018-11-03T12:25:14.247Z,2.73
2018-11-03T12:27:42.976Z,2.60
2018-11-03T12:30:14.148Z,2.43
2018-11-03T12:32:42.755Z,3.03
2018-11-03T12:35:11.452Z,2.80
2018-11-03T12:37:40.301Z,2.60
2018-11-03T12:40:12.104Z,2.60
2018-11-03T12:42:40.533Z,2.63
2018-11-03T12:45:09.553Z,3.03
2018-11-03T12:47:38.230Z,3.20
2018-11-03T12:50:08.437Z,2.97
2018-11-03T12:52:36.921Z,3.20
2018-11-03T12:55:07.389Z,3.53
2018-11-03T12:57:35.917Z,3.30
2018-11-03T13:00:07.492Z,3.20
2018-11-03T13:02:36.217Z,3.30
2018-11-03T13:05:05.231Z,3.17
2018-11-03T13:07:33.781Z,3.07
2018-11-03T13:10:02.635Z,3.27
2018-11-03T13:12:31.048Z,3.40
2018-11-03T13:14:59.467Z,3.83
2018-11-03T13:17:28.105Z,3.83
2018-11-03T13:19:56.625Z,3.70
2018-11-03T13:22:25.044Z,3.17
2018-11-03T13:24:53.823Z,3.27
2018-11-03T13:27:22.438Z,3.90
2018-11-03T13:29:50.821Z,3.47
2018-11-03T13:32:19.391Z,3.40
2018-11-03T13:34:48.006Z,3.70
2018-11-03T13:37:16.428Z,4.13
2018-11-03T13:39:44.895Z,3.40
2018-11-03T13:42:13.423Z,3.03
2018-11-03T13:44:42.494Z,3.40
2018-11-03T13:47:11.029Z,3.50
2018-11-03T13:49:39.574Z,3.60
2018-11-03T13:52:07.927Z,3.13
2018-11-03T13:54:36.548Z,3.17
2018-11-03T13:57:05.252Z,2.97
2018-11-03T13:59:33.694Z,3.30
2018-11-03T14:02:02.813Z,3.30
2018-11-03T14:04:31.531Z,3.20
2018-11-03T14:06:59.903Z,3.63
2018-11-03T14:09:28.468Z,4.30
2018-11-03T14:11:57.018Z,3.67
2018-11-03T14:14:25.466Z,3.60
2018-11-03T14:16:54.013Z,4.70
2018-11-03T14:19:22.692Z,4.90
2018-11-03T14:21:51.186Z,5.40
2018-11-03T14:24:19.822Z,5.27
2018-11-03T14:26:48.364Z,5.13
2018-11-03T14:29:16.711Z,4.87
2018-11-03T14:31:45.295Z,5.17
2018-11-03T14:34:13.915Z,5.87
2018-11-03T14:36:42.463Z,5.87
2018-11-03T14:39:11.769Z,5.70
2018-11-03T14:41:40.503Z,5.13
2018-11-03T14:44:08.945Z,5.60
2018-11-03T14:46:37.565Z,6.13
2018-11-03T14:49:06.491Z,5.50
2018-11-03T14:51:34.971Z,5.90
2018-11-03T14:54:03.503Z,5.80
2018-11-03T14:56:32.103Z,6.00
2018-11-03T14:59:00.521Z,5.87
2018-11-03T15:01:29.323Z,6.10
2018-11-03T15:03:58.169Z,5.77
2018-11-03T15:06:26.693Z,5.87
2018-11-03T15:08:55.247Z,6.03
2018-11-03T15:11:23.825Z,6.13
2018-11-03T15:13:52.447Z,6.10
2018-11-03T15:16:20.950Z,6.00
2018-11-03T15:18:49.527Z,5.70
2018-11-03T15:21:17.901Z,5.40
2018-11-03T15:23:47.288Z,5.90
2018-11-03T15:26:15.826Z,6.17
2018-11-03T15:28:44.194Z,5.80
2018-11-03T15:31:12.787Z,6.00
2018-11-03T15:33:41.358Z,5.80
2018-11-03T15:36:09.775Z,5.63
2018-11-03T15:38:38.265Z,6.07
2018-11-03T15:41:06.880Z,5.93
2018-11-03T15:43:35.302Z,5.93
2018-11-03T15:46:03.788Z,6.10
2018-11-03T15:48:32.124Z,7.40
2018-11-03T15:51:00.567Z,6.33
2018-11-03T15:53:29.347Z,6.20
2018-11-03T15:55:57.767Z,6.30
2018-11-03T15:58:26.222Z,6.33
2018-11-03T16:00:54.764Z,6.93
2018-11-03T16:03:23.246Z,7.27
2018-11-03T16:05:51.616Z,6.50
2018-11-03T16:08:20.241Z,6.50
2018-11-03T16:10:48.778Z,7.17
2018-11-03T16:13:17.181Z,6.33
2018-11-03T16:15:45.699Z,6.50
2018-11-03T16:18:14.244Z,6.67
2018-11-03T16:20:42.688Z,6.50
2018-11-03T16:23:11.293Z,6.53
2018-11-03T16:25:39.975Z,6.13
2018-11-03T16:28:08.535Z,6.33
2018-11-03T16:30:37.206Z,6.53
2018-11-03T16:33:05.948Z,6.63
2018-11-03T16:35:34.448Z,7.30
2018-11-03T16:38:03.047Z,7.00
2018-11-03T16:40:31.622Z,6.80
2018-11-03T16:43:00.008Z,6.60
2018-11-03T16:45:28.695Z,7.33
2018-11-03T16:47:57.189Z,6.70
2018-11-03T16:50:25.612Z,7.43
2018-11-03T16:52:54.329Z,7.43
2018-11-03T16:55:23.133Z,6.80
2018-11-03T16:57:51.525Z,6.50
2018-11-03T17:00:22.116Z,8.47
2018-11-03T17:02:50.556Z,7.30
2018-11-03T17:05:19.061Z,7.30
2018-11-03T17:07:47.587Z,7.33
2018-11-03T17:10:16.395Z,7.00
2018-11-03T17:12:46.098Z,7.37
2018-11-03T17:15:15.137Z,7.33
2018-11-03T17:17:43.531Z,7.33
2018-11-03T17:20:12.254Z,8.50
2018-11-03T17:22:41.750Z,8.03
2018-11-03T17:25:11.280Z,7.90
2018-11-03T17:27:39.709Z,8.03
2018-11-03T17:30:10.324Z,7.83
2018-11-03T17:32:38.787Z,7.67
2018-11-03T17:35:07.295Z,8.27
2018-11-03T17:37:36.099Z,7.50
2018-11-03T17:40:05.252Z,7.87
2018-11-03T17:42:33.710Z,7.70
2018-11-03T17:45:02.277Z,8.00
2018-11-03T17:47:31.529Z,8.23
2018-11-03T17:49:59.967Z,7.60
2018-11-03T17:52:28.709Z,8.30
2018-11-03T17:54:57.214Z,8.13
2018-11-03T17:57:25.613Z,8.20
2018-11-03T17:59:54.215Z,7.63
2018-11-03T18:02:22.611Z,8.53
2018-11-03T18:04:51.055Z,7.87
2018-11-03T18:07:19.587Z,8.67
2018-11-03T18:09:47.990Z,8.43
2018-11-03T18:12:16.653Z,8.37
2018-11-03T18:14:45.274Z,8.20
2018-11-03T18:17:13.848Z,8.23
2018-11-03T18:19:42.254Z,8.63
2018-11-03T18:22:10.805Z,8.63
2018-11-03T18:24:40.113Z,8.33
2018-11-03T18:27:08.447Z,7.80
2018-11-03T18:29:36.996Z,7.83
2018-11-03T18:32:05.848Z,8.13
2018-11-03T18:34:34.289Z,7.87
2018-11-03T18:37:02.821Z,7.77
2018-11-03T18:39:31.360Z,8.00
2018-11-03T18:41:59.816Z,7.77
2018-11-03T18:44:28.756Z,7.73
2018-11-03T18:46:57.291Z,7.60
2018-11-03T18:49:25.701Z,7.60
2018-11-03T18:51:54.263Z,8.00
2018-11-03T18:54:22.635Z,7.37
2018-11-03T18:56:50.981Z,7.70
2018-11-03T18:59:19.734Z,7.47
2018-11-03T19:01:48.469Z,7.70
2018-11-03T19:04:16.847Z,7.70
2018-11-03T19:06:45.598Z,7.63
2018-11-03T19:09:14.130Z,7.20
2018-11-03T19:11:42.515Z,7.57
2018-11-03T19:14:11.347Z,7.70
2018-11-03T19:16:40.445Z,7.63
2018-11-03T19:19:09.018Z,8.00
2018-11-03T19:21:37.909Z,7.30
2018-11-03T19:24:06.415Z,7.47
2018-11-03T19:26:34.963Z,7.67
2018-11-03T19:29:03.565Z,8.20
2018-11-03T19:31:32.055Z,7.63
2018-11-03T19:34:00.632Z,7.87
2018-11-03T19:36:29.351Z,8.10
2018-11-03T19:38:57.869Z,7.80
2018-11-03T19:41:26.319Z,8.40
2018-11-03T19:43:54.881Z,7.50
2018-11-03T19:46:23.469Z,8.47
2018-11-03T19:48:51.941Z,7.87
2018-11-03T19:51:20.541Z,8.13
2018-11-03T19:53:50.005Z,8.30
2018-11-03T19:56:18.405Z,8.03
2018-11-03T19:58:47.423Z,8.10
2018-11-03T20:01:17.031Z,8.63
2018-11-03T20:03:45.455Z,8.43
2018-11-03T20:06:14.163Z,8.47
2018-11-03T20:08:42.634Z,8.00
2018-11-03T20:11:11.012Z,8.03
2018-11-03T20:13:39.554Z,8.00
2018-11-03T20:16:08.014Z,7.87
2018-11-03T20:18:36.428Z,8.20
2018-11-03T20:21:05.234Z,8.27
2018-11-03T20:23:33.837Z,7.77
2018-11-03T20:26:02.214Z,9.03
2018-11-03T20:28:30.992Z,8.80
2018-11-03T20:30:59.425Z,8.70
2018-11-03T20:33:27.825Z,8.70
2018-11-03T20:35:56.713Z,8.73
2018-11-03T20:38:25.251Z,8.80
2018-11-03T20:40:53.679Z,9.43
2018-11-03T20:43:22.321Z,9.30
2018-11-03T20:45:51.088Z,8.80
2018-11-03T20:48:19.486Z,9.13
2018-11-03T20:50:52.321Z,8.40
2018-11-03T20:53:20.900Z,8.90
2018-11-03T20:55:49.300Z,9.30
2018-11-03T20:58:17.974Z,8.63
2018-11-03T21:00:46.474Z,9.17
2018-11-03T21:03:14.850Z,9.47
2018-11-03T21:05:43.432Z,9.63
2018-11-03T21:08:12.477Z,9.93
2018-11-03T21:10:40.755Z,9.50
2018-11-03T21:13:09.380Z,10.30
2018-11-03T21:15:37.767Z,10.20
2018-11-03T21:18:06.485Z,9.73
2018-11-03T21:20:35.053Z,9.57
2018-11-03T21:23:04.208Z,10.37
2018-11-03T21:25:32.594Z,10.90
2018-11-03T21:28:01.147Z,10.03
2018-11-03T21:30:29.686Z,9.77
2018-11-03T21:32:58.211Z,10.50
2018-11-03T21:35:26.706Z,10.27
2018-11-03T21:37:55.293Z,10.40
2018-11-03T21:40:23.849Z,10.10
2018-11-03T21:42:52.540Z,9.37
2018-11-03T21:45:21.165Z,10.53
2018-11-03T21:47:49.613Z,9.90
2018-11-03T21:50:18.301Z,10.67
2018-11-03T21:52:46.741Z,10.13
2018-11-03T21:55:15.110Z,9.53
2018-11-03T21:57:43.612Z,9.87
2018-11-03T22:00:20.898Z,10.50
2018-11-03T22:02:49.680Z,9.20
2018-11-03T22:05:18.046Z,9.83
2018-11-03T22:07:46.991Z,9.87
2018-11-03T22:10:15.806Z,10.30
2018-11-03T22:12:44.251Z,10.30
2018-11-03T22:15:12.712Z,9.87
2018-11-03T22:17:41.421Z,10.47
2018-11-03T22:20:10.858Z,10.73
2018-11-03T22:22:39.361Z,10.60
2018-11-03T22:25:09.102Z,10.07
2018-11-03T22:27:38.035Z,11.17
2018-11-03T22:30:07.894Z,10.43
2018-11-03T22:32:36.600Z,10.93
2018-11-03T22:35:05.393Z,11.17
2018-11-03T22:37:33.920Z,10.30
2018-11-03T22:40:02.977Z,11.23
2018-11-03T22:42:31.422Z,10.90
2018-11-03T22:45:00.107Z,11.30
2018-11-03T22:47:28.645Z,10.57
2018-11-03T22:49:57.063Z,10.77
2018-11-03T22:52:26.194Z,10.60
2018-11-03T22:54:54.694Z,10.10
2018-11-03T22:57:23.062Z,11.07
2018-11-03T22:59:51.555Z,10.57
2018-11-03T23:02:20.436Z,11.43
2018-11-03T23:04:48.823Z,11.73
2018-11-03T23:07:17.468Z,11.10
2018-11-03T23:09:46.182Z,11.70
2018-11-03T23:12:14.592Z,10.83
2018-11-03T23:14:43.036Z,11.50
2018-11-03T23:17:11.560Z,11.00
2018-11-03T23:19:40.159Z,11.00
2018-11-03T23:22:08.815Z,11.70
2018-11-03T23:24:37.366Z,11.20
2018-11-03T23:27:05.945Z,10.37
2018-11-03T23:29:34.523Z,10.97
2018-11-03T23:32:03.216Z,10.60
2018-11-03T23:34:31.581Z,10.70
2018-11-03T23:37:00.163Z,11.10
2018-11-03T23:39:28.696Z,11.47
2018-11-03T23:41:57.089Z,11.53
2018-11-03T23:44:25.632Z,11.53
2018-11-03T23:46:54.343Z,11.67
2018-11-03T23:49:22.741Z,12.07
2018-11-03T23:51:51.351Z,11.93
2018-11-03T23:54:19.831Z,11.77
2018-11-03T23:56:48.363Z,11.77
2018-11-03T23:59:16.809Z,12.27
